createdAt,value
2024-03-02T00:00:51.033Z,11.12
2024-03-02T00:03:18.070Z,11.12
2024-03-02T00:05:44.999Z,11.11
2024-03-02T00:08:11.573Z,11.14
2024-03-02T00:10:42.361Z,11.10
2024-03-02T00:13:09.687Z,11.07
2024-03-02T00:15:45.351Z,11.05
2024-03-02T00:18:14.011Z,11.09
2024-03-02T00:20:41.989Z,11.00
2024-03-02T00:23:10.459Z,10.86
2024-03-02T00:25:45.002Z,10.83
2024-03-02T00:28:23.487Z,10.74
2024-03-02T00:30:58.361Z,10.66
2024-03-02T00:33:29.038Z,10.53
2024-03-02T00:35:55.950Z,10.44
2024-03-02T00:38:23.599Z,10.38
2024-03-02T00:40:50.312Z,10.20
2024-03-02T00:43:44.181Z,10.10
2024-03-02T00:46:20.566Z,10.07
2024-03-02T00:48:53.160Z,10.09
2024-03-02T00:51:19.800Z,10.15
2024-03-02T00:53:46.713Z,10.19
2024-03-02T00:56:13.469Z,10.22
2024-03-02T00:58:40.908Z,10.28
2024-03-02T01:01:08.834Z,10.36
2024-03-02T01:03:35.709Z,10.45
2024-03-02T01:06:02.484Z,10.56
2024-03-02T01:08:29.128Z,10.60
2024-03-02T01:10:56.012Z,10.65
2024-03-02T01:13:24.414Z,10.73
2024-03-02T01:15:51.714Z,10.78
2024-03-02T01:18:18.799Z,10.77
2024-03-02T01:20:45.496Z,10.80
2024-03-02T01:23:12.414Z,10.76
2024-03-02T01:25:39.070Z,10.81
2024-03-02T01:28:06.357Z,10.84
2024-03-02T01:30:33.085Z,10.86
2024-03-02T01:33:01.483Z,10.76
2024-03-02T01:35:28.135Z,10.78
2024-03-02T01:37:55.279Z,10.79
2024-03-02T01:40:21.952Z,10.78
2024-03-02T01:42:48.682Z,10.74
2024-03-02T01:45:15.424Z,10.77
2024-03-02T01:47:42.089Z,10.64
2024-03-02T01:50:09.574Z,10.54
2024-03-02T01:52:36.154Z,10.52
2024-03-02T01:55:02.808Z,10.43
2024-03-02T01:57:29.414Z,10.39
2024-03-02T01:59:56.526Z,10.36
2024-03-02T02:02:23.261Z,10.32
2024-03-02T02:04:49.810Z,10.27
2024-03-02T02:07:16.451Z,10.28
2024-03-02T02:09:43.631Z,10.23
2024-03-02T02:12:13.457Z,10.23
2024-03-02T02:14:41.171Z,10.19
2024-03-02T02:17:08.032Z,10.25
2024-03-02T02:19:34.627Z,10.31
2024-03-02T02:22:01.270Z,10.25
2024-03-02T02:24:27.851Z,10.30
2024-03-02T02:26:54.455Z,10.30
2024-03-02T02:29:21.101Z,10.32
2024-03-02T02:31:47.675Z,10.36
2024-03-02T02:34:15.560Z,10.42
2024-03-02T02:36:42.825Z,10.41
2024-03-02T02:39:14.412Z,10.46
2024-03-02T02:41:41.134Z,10.51
2024-03-02T02:44:07.767Z,10.54
2024-03-02T02:46:34.434Z,10.59
2024-03-02T02:49:01.053Z,10.59
2024-03-02T02:51:27.797Z,10.63
2024-03-02T02:53:54.566Z,10.67
2024-03-02T02:56:21.194Z,10.67
2024-03-02T02:58:47.846Z,10.68
2024-03-02T03:01:14.601Z,10.69
2024-03-02T03:03:41.847Z,10.71
2024-03-02T03:06:08.421Z,10.70
2024-03-02T03:08:35.085Z,10.63
2024-03-02T03:11:01.936Z,10.61
2024-03-02T03:13:28.540Z,10.54
2024-03-02T03:15:55.288Z,10.55
2024-03-02T03:18:22.022Z,10.56
2024-03-02T03:20:48.738Z,10.52
2024-03-02T03:23:17.317Z,10.46
2024-03-02T03:25:44.532Z,10.50
2024-03-02T03:28:11.144Z,10.53
2024-03-02T03:30:40.955Z,10.54
2024-03-02T03:33:07.821Z,10.46
2024-03-02T03:35:34.653Z,10.51
2024-03-02T03:38:01.285Z,10.46
2024-03-02T03:40:27.904Z,10.48
2024-03-02T03:42:55.080Z,10.50
2024-03-02T03:45:22.239Z,10.52
2024-03-02T03:47:49.206Z,10.38
2024-03-02T03:50:15.973Z,10.37
2024-03-02T03:52:42.545Z,10.40
2024-03-02T03:55:09.610Z,10.39
2024-03-02T03:57:36.586Z,10.39
2024-03-02T04:00:04.741Z,10.43
2024-03-02T04:02:31.407Z,10.41
2024-03-02T04:04:57.922Z,10.43
2024-03-02T04:07:24.443Z,10.42
2024-03-02T04:09:51.130Z,10.41
2024-03-02T04:12:17.861Z,10.44
2024-03-02T04:14:44.581Z,10.49
2024-03-02T04:17:11.469Z,10.50
2024-03-02T04:19:38.060Z,10.50
2024-03-02T04:22:12.603Z,10.49
2024-03-02T04:24:45.300Z,10.49
2024-03-02T04:27:11.910Z,10.52
2024-03-02T04:29:38.435Z,10.55
2024-03-02T04:32:05.795Z,10.59
2024-03-02T04:34:32.351Z,10.63
2024-03-02T04:36:58.951Z,10.62
2024-03-02T04:39:26.154Z,10.63
2024-03-02T04:41:52.626Z,10.62
2024-03-02T04:44:19.222Z,10.60
2024-03-02T04:46:45.745Z,10.65
2024-03-02T04:49:12.505Z,10.70
2024-03-02T04:51:39.224Z,10.73
2024-03-02T04:54:05.890Z,10.69
2024-03-02T04:56:32.441Z,10.69
2024-03-02T04:58:59.008Z,10.71
2024-03-02T05:01:25.615Z,10.72
2024-03-02T05:03:52.362Z,10.76
2024-03-02T05:06:19.089Z,10.80
2024-03-02T05:08:46.167Z,10.83
2024-03-02T05:11:31.393Z,10.86
2024-03-02T05:13:57.988Z,10.88
2024-03-02T05:16:24.544Z,10.91
2024-03-02T05:18:51.358Z,10.92
2024-03-02T05:21:17.954Z,10.93
2024-03-02T05:23:45.280Z,10.96
2024-03-02T05:26:13.967Z,10.98
2024-03-02T05:28:40.663Z,10.97
2024-03-02T05:31:07.967Z,10.93
2024-03-02T05:33:34.696Z,10.93
2024-03-02T05:36:03.026Z,10.94
2024-03-02T05:38:29.636Z,10.89
2024-03-02T05:40:56.192Z,10.88
2024-03-02T05:43:22.741Z,10.89
2024-03-02T05:45:49.394Z,10.89
2024-03-02T05:48:16.001Z,10.90
2024-03-02T05:50:42.607Z,10.88
2024-03-02T05:53:09.316Z,10.90
2024-03-02T05:55:36.678Z,10.68
2024-03-02T05:58:28.894Z,10.46
2024-03-02T06:00:55.936Z,10.43
2024-03-02T06:03:22.557Z,10.38
2024-03-02T06:05:50.455Z,10.39
2024-03-02T06:08:17.149Z,10.40
2024-03-02T06:10:44.618Z,10.44
2024-03-02T06:13:11.186Z,10.50
2024-03-02T06:15:37.885Z,10.54
2024-03-02T06:18:04.822Z,10.59
2024-03-02T06:20:35.212Z,10.64
2024-03-02T06:23:03.259Z,10.67
2024-03-02T06:25:29.861Z,10.70
2024-03-02T06:27:56.509Z,10.74
2024-03-02T06:30:23.289Z,10.77
2024-03-02T06:32:49.965Z,10.82
2024-03-02T06:35:16.627Z,10.86
2024-03-02T06:37:43.454Z,10.92
2024-03-02T06:40:10.810Z,10.96
2024-03-02T06:42:37.527Z,11.02
2024-03-02T06:45:04.777Z,11.05
2024-03-02T06:47:31.670Z,11.10
2024-03-02T06:49:59.649Z,11.13
2024-03-02T06:52:26.349Z,11.17
2024-03-02T06:54:53.040Z,11.21
2024-03-02T06:57:21.011Z,11.16
2024-03-02T06:59:48.356Z,11.19
2024-03-02T07:02:14.936Z,11.22
2024-03-02T07:04:41.558Z,11.25
2024-03-02T07:07:08.180Z,11.25
2024-03-02T07:09:34.879Z,11.23
2024-03-02T07:12:01.641Z,11.23
2024-03-02T07:14:48.124Z,11.27
2024-03-02T07:17:14.670Z,11.26
2024-03-02T07:19:41.286Z,11.22
2024-03-02T07:22:09.271Z,11.23
2024-03-02T07:24:43.080Z,11.26
2024-03-02T07:27:14.054Z,11.30
2024-03-02T07:29:41.225Z,11.34
2024-03-02T07:32:08.215Z,11.37
2024-03-02T07:34:35.136Z,11.39
2024-03-02T07:37:01.980Z,11.39
2024-03-02T07:39:28.796Z,11.38
2024-03-02T07:41:55.405Z,11.39
2024-03-02T07:44:22.169Z,11.40
2024-03-02T07:46:51.167Z,11.40
2024-03-02T07:49:18.355Z,11.36
2024-03-02T07:51:45.029Z,11.34
2024-03-02T07:54:11.839Z,11.33
2024-03-02T07:56:38.623Z,11.33
2024-03-02T07:59:06.045Z,11.34
2024-03-02T08:01:33.467Z,11.19
2024-03-02T08:04:06.631Z,11.19
2024-03-02T08:06:33.382Z,11.10
2024-03-02T08:09:01.659Z,11.02
2024-03-02T08:11:28.627Z,10.97
2024-03-02T08:13:57.861Z,11.00
2024-03-02T08:16:24.744Z,11.05
2024-03-02T08:18:52.205Z,10.74
2024-03-02T08:21:19.314Z,10.77
2024-03-02T08:23:46.128Z,10.76
2024-03-02T08:26:13.005Z,10.78
2024-03-02T08:28:43.308Z,10.83
2024-03-02T08:31:10.285Z,10.75
2024-03-02T08:33:38.678Z,10.67
2024-03-02T08:36:06.349Z,10.72
2024-03-02T08:38:33.560Z,10.79
2024-03-02T08:41:00.069Z,10.85
2024-03-02T08:43:26.710Z,10.86
2024-03-02T08:45:53.459Z,10.89
2024-03-02T08:48:21.652Z,10.96
2024-03-02T08:50:48.279Z,10.98
2024-03-02T08:53:19.246Z,11.05
2024-03-02T08:55:47.409Z,11.03
2024-03-02T08:58:14.267Z,11.01
2024-03-02T09:00:41.854Z,10.80
2024-03-02T09:03:09.099Z,10.56
2024-03-02T09:05:35.732Z,10.59
2024-03-02T09:08:02.481Z,10.53
2024-03-02T09:10:29.128Z,10.45
2024-03-02T09:12:56.071Z,10.46
2024-03-02T09:15:22.753Z,10.35
2024-03-02T09:17:49.440Z,10.40
2024-03-02T09:20:16.070Z,10.32
2024-03-02T09:22:42.744Z,10.27
2024-03-02T09:25:09.941Z,10.16
2024-03-02T09:27:39.913Z,10.15
2024-03-02T09:30:09.333Z,10.15
2024-03-02T09:32:36.029Z,10.20
2024-03-02T09:35:02.680Z,10.27
2024-03-02T09:37:29.983Z,10.34
2024-03-02T09:39:56.720Z,10.32
2024-03-02T09:42:24.922Z,10.35
2024-03-02T09:44:51.847Z,10.41
2024-03-02T09:47:18.511Z,10.40
2024-03-02T09:49:45.112Z,10.39
2024-03-02T09:52:12.086Z,10.47
2024-03-02T09:54:39.546Z,10.56
2024-03-02T09:57:06.213Z,10.68
2024-03-02T09:59:32.803Z,10.77
2024-03-02T10:02:04.174Z,10.85
2024-03-02T10:04:36.911Z,10.96
2024-03-02T10:07:14.741Z,11.04
2024-03-02T10:09:43.979Z,10.98
2024-03-02T10:12:12.913Z,10.95
2024-03-02T10:14:40.143Z,10.99
2024-03-02T10:17:11.606Z,10.90
2024-03-02T10:19:40.272Z,10.96
2024-03-02T10:22:09.621Z,11.00
2024-03-02T10:24:41.598Z,10.79
2024-03-02T10:27:19.136Z,10.71
2024-03-02T10:29:49.263Z,10.78
2024-03-02T10:32:17.176Z,10.70
2024-03-02T10:34:46.681Z,10.73
2024-03-02T10:37:14.076Z,10.83
2024-03-02T10:39:41.889Z,10.89
2024-03-02T10:42:09.438Z,10.94
2024-03-02T10:44:36.785Z,10.81
2024-03-02T10:47:06.183Z,10.71
2024-03-02T10:49:33.913Z,10.65
2024-03-02T10:52:00.940Z,10.65
2024-03-02T10:54:30.420Z,10.73
2024-03-02T10:57:04.508Z,10.73
2024-03-02T10:59:36.226Z,10.83
2024-03-02T11:02:06.098Z,10.72
2024-03-02T11:04:36.701Z,10.76
2024-03-02T11:07:06.315Z,10.85
2024-03-02T11:09:36.868Z,10.78
2024-03-02T11:12:58.213Z,10.73
2024-03-02T11:15:27.260Z,10.80
2024-03-02T11:17:54.609Z,10.83
2024-03-02T11:20:22.083Z,10.54
2024-03-02T11:22:48.971Z,10.63
2024-03-02T11:25:29.043Z,10.42
2024-03-02T11:27:55.657Z,10.33
2024-03-02T11:30:34.721Z,10.45
2024-03-02T11:33:13.085Z,10.49
2024-03-02T11:35:48.588Z,10.52
2024-03-02T11:38:15.283Z,10.62
2024-03-02T11:40:42.258Z,10.63
2024-03-02T11:43:09.852Z,10.60
2024-03-02T11:45:41.358Z,10.60
2024-03-02T11:48:13.868Z,10.67
2024-03-02T11:51:00.869Z,10.72
2024-03-02T11:53:32.212Z,10.84
2024-03-02T11:56:00.197Z,10.85
2024-03-02T11:58:28.655Z,10.87
2024-03-02T12:00:56.789Z,10.98
2024-03-02T12:03:25.115Z,11.03
2024-03-02T12:05:52.415Z,10.88
2024-03-02T12:08:19.224Z,10.72
2024-03-02T12:11:03.262Z,10.69
2024-03-02T12:13:31.000Z,10.83
2024-03-02T12:15:57.924Z,10.79
2024-03-02T12:18:25.066Z,10.66
2024-03-02T12:21:04.200Z,10.67
2024-03-02T12:23:30.849Z,10.76
2024-03-02T12:25:57.771Z,10.60
2024-03-02T12:28:24.476Z,10.67
2024-03-02T12:30:51.314Z,10.73
2024-03-02T12:33:18.075Z,10.84
2024-03-02T12:35:44.932Z,10.82
2024-03-02T12:38:12.288Z,10.80
2024-03-02T12:40:39.239Z,10.75
2024-03-02T12:43:07.218Z,10.93
2024-03-02T12:45:35.445Z,11.08
2024-03-02T12:48:03.412Z,11.08
2024-03-02T12:50:30.107Z,11.02
2024-03-02T12:52:57.100Z,10.95
2024-03-02T12:55:25.214Z,10.96
2024-03-02T12:57:55.832Z,10.96
2024-03-02T13:00:23.911Z,10.98
2024-03-02T13:02:52.824Z,11.03
2024-03-02T13:05:20.706Z,11.06
2024-03-02T13:07:49.266Z,11.09
2024-03-02T13:10:16.507Z,11.15
2024-03-02T13:12:43.462Z,11.18
2024-03-02T13:15:11.882Z,11.18
2024-03-02T13:17:40.722Z,11.08
2024-03-02T13:20:11.662Z,10.83
2024-03-02T13:22:38.790Z,10.80
2024-03-02T13:25:06.608Z,10.86
2024-03-02T13:27:34.086Z,10.77
2024-03-02T13:30:00.844Z,10.82
2024-03-02T13:32:27.649Z,10.78
2024-03-02T13:34:54.317Z,10.78
2024-03-02T13:37:22.393Z,10.76
2024-03-02T13:39:49.086Z,10.79
2024-03-02T13:42:16.517Z,10.69
2024-03-02T13:44:52.140Z,10.56
2024-03-02T13:47:19.024Z,10.52
2024-03-02T13:49:48.107Z,10.55
2024-03-02T13:52:17.193Z,10.60
2024-03-02T13:54:46.054Z,10.70
2024-03-02T13:57:13.374Z,10.40
2024-03-02T13:59:41.331Z,10.38
2024-03-02T14:02:08.676Z,10.20
2024-03-02T14:04:36.134Z,10.09
2024-03-02T14:07:03.241Z,10.04
2024-03-02T14:09:30.240Z,10.01
2024-03-02T14:11:57.516Z,9.93
2024-03-02T14:14:24.551Z,10.02
2024-03-02T14:16:51.482Z,10.08
2024-03-02T14:19:18.180Z,10.15
2024-03-02T14:21:44.805Z,10.19
2024-03-02T14:24:11.511Z,10.17
2024-03-02T14:26:38.411Z,10.03
2024-03-02T14:29:05.663Z,10.02
2024-03-02T14:31:32.631Z,10.08
2024-03-02T14:33:59.852Z,10.01
2024-03-02T14:36:28.876Z,10.04
2024-03-02T14:38:56.965Z,10.03
2024-03-02T14:41:25.648Z,10.01
2024-03-02T14:43:52.802Z,10.03
2024-03-02T14:46:20.381Z,10.05
2024-03-02T14:48:47.774Z,10.13
2024-03-02T14:51:15.285Z,10.23
2024-03-02T14:53:42.600Z,10.31
2024-03-02T14:56:10.174Z,10.19
2024-03-02T14:58:37.965Z,10.26
2024-03-02T15:01:10.016Z,10.26
2024-03-02T15:03:37.341Z,10.20
2024-03-02T15:06:05.553Z,10.11
2024-03-02T15:08:32.287Z,10.10
2024-03-02T15:11:05.440Z,10.11
2024-03-02T15:13:32.130Z,10.13
2024-03-02T15:15:59.444Z,10.05
2024-03-02T15:18:26.284Z,10.02
2024-03-02T15:20:52.951Z,10.04
2024-03-02T15:23:22.856Z,10.08
2024-03-02T15:25:49.486Z,10.14
2024-03-02T15:28:16.105Z,10.28
2024-03-02T15:30:42.908Z,10.37
2024-03-02T15:33:09.559Z,10.32
2024-03-02T15:35:36.263Z,10.36
2024-03-02T15:38:03.053Z,10.40
2024-03-02T15:40:30.362Z,10.44
2024-03-02T15:42:57.003Z,10.44
2024-03-02T15:45:23.658Z,10.45
2024-03-02T15:47:50.339Z,10.53
2024-03-02T15:50:17.119Z,10.65
2024-03-02T15:52:43.802Z,10.73
2024-03-02T15:55:10.515Z,10.77
2024-03-02T15:57:37.414Z,10.78
2024-03-02T16:00:06.304Z,10.74
2024-03-02T16:02:33.332Z,10.82
2024-03-02T16:04:59.863Z,10.91
2024-03-02T16:07:26.391Z,10.99
2024-03-02T16:09:52.944Z,10.90
2024-03-02T16:12:19.651Z,10.91
2024-03-02T16:14:46.243Z,10.92
2024-03-02T16:17:12.835Z,10.94
2024-03-02T16:19:42.123Z,10.99
2024-03-02T16:22:12.226Z,10.96
2024-03-02T16:24:39.141Z,10.98
2024-03-02T16:27:05.832Z,11.03
2024-03-02T16:29:33.293Z,11.09
2024-03-02T16:32:01.219Z,11.17
2024-03-02T16:34:28.371Z,11.23
2024-03-02T16:36:55.341Z,11.28
2024-03-02T16:39:21.948Z,11.34
2024-03-02T16:41:48.524Z,11.39
2024-03-02T16:44:15.292Z,11.45
2024-03-02T16:46:41.977Z,11.48
2024-03-02T16:49:08.642Z,11.42
2024-03-02T16:51:42.096Z,11.44
2024-03-02T16:54:08.796Z,11.46
2024-03-02T16:56:42.545Z,11.49
2024-03-02T16:59:09.550Z,11.52
2024-03-02T17:01:36.634Z,11.56
2024-03-02T17:04:05.388Z,11.59
2024-03-02T17:06:32.398Z,11.59
2024-03-02T17:08:59.020Z,11.58
2024-03-02T17:11:25.813Z,11.61
2024-03-02T17:13:58.744Z,11.46
2024-03-02T17:16:26.239Z,11.37
2024-03-02T17:18:53.425Z,11.37
2024-03-02T17:21:20.717Z,11.38
2024-03-02T17:23:47.319Z,11.29
2024-03-02T17:26:14.174Z,11.30
2024-03-02T17:28:42.425Z,11.37
2024-03-02T17:31:09.182Z,11.41
2024-03-02T17:33:36.152Z,11.41
2024-03-02T17:36:04.971Z,11.43
2024-03-02T17:38:31.785Z,11.47
2024-03-02T17:40:58.663Z,11.43
2024-03-02T17:43:25.553Z,11.08
2024-03-02T17:45:52.213Z,11.08
2024-03-02T17:48:18.898Z,11.09
2024-03-02T17:50:45.532Z,11.05
2024-03-02T17:53:12.224Z,11.08
2024-03-02T17:55:38.857Z,11.12
2024-03-02T17:58:05.517Z,11.17
2024-03-02T18:00:32.361Z,11.23
2024-03-02T18:02:59.003Z,11.26
2024-03-02T18:05:25.596Z,11.31
2024-03-02T18:07:52.319Z,11.36
2024-03-02T18:10:19.194Z,11.40
2024-03-02T18:12:49.292Z,11.47
2024-03-02T18:15:16.066Z,11.52
2024-03-02T18:17:42.867Z,11.51
2024-03-02T18:20:11.729Z,11.51
2024-03-02T18:22:38.291Z,11.52
2024-03-02T18:25:06.203Z,11.53
2024-03-02T18:27:35.067Z,11.52
2024-03-02T18:30:05.811Z,11.40
2024-03-02T18:32:33.931Z,11.38
2024-03-02T18:35:00.845Z,11.39
2024-03-02T18:37:27.582Z,11.39
2024-03-02T18:39:54.928Z,11.41
2024-03-02T18:42:21.563Z,11.38
2024-03-02T18:44:50.292Z,11.45
2024-03-02T18:47:17.132Z,11.41
2024-03-02T18:49:47.351Z,11.39
2024-03-02T18:52:14.701Z,11.40
2024-03-02T18:54:45.227Z,11.39
2024-03-02T18:57:12.035Z,11.35
2024-03-02T18:59:38.766Z,11.33
2024-03-02T19:02:06.042Z,11.34
2024-03-02T19:04:32.977Z,11.36
2024-03-02T19:06:59.857Z,11.38
2024-03-02T19:09:26.538Z,11.40
2024-03-02T19:11:53.107Z,11.42
2024-03-02T19:14:19.973Z,11.38
2024-03-02T19:16:46.674Z,11.41
2024-03-02T19:19:13.424Z,11.42
2024-03-02T19:21:40.128Z,11.43
2024-03-02T19:24:06.919Z,11.45
2024-03-02T19:26:35.085Z,11.46
2024-03-02T19:29:01.848Z,11.50
2024-03-02T19:31:28.462Z,11.53
2024-03-02T19:33:55.111Z,11.54
2024-03-02T19:36:21.851Z,11.55
2024-03-02T19:38:48.389Z,11.56
2024-03-02T19:41:15.177Z,11.54
2024-03-02T19:43:41.981Z,11.54
2024-03-02T19:46:08.590Z,11.53
2024-03-02T19:48:35.331Z,11.53
2024-03-02T19:51:01.905Z,11.51
2024-03-02T19:53:28.567Z,11.50
2024-03-02T19:55:55.639Z,11.52
2024-03-02T19:58:22.449Z,11.50
2024-03-02T20:00:49.172Z,11.47
2024-03-02T20:03:15.853Z,11.46
2024-03-02T20:05:42.479Z,11.45
2024-03-02T20:08:09.146Z,11.43
2024-03-02T20:10:36.252Z,11.46
2024-03-02T20:13:06.015Z,11.44
2024-03-02T20:15:33.163Z,11.40
2024-03-02T20:17:59.807Z,11.39
2024-03-02T20:20:26.541Z,11.39
2024-03-02T20:22:53.154Z,11.35
2024-03-02T20:25:20.132Z,11.33
2024-03-02T20:27:46.902Z,11.32
2024-03-02T20:30:13.906Z,11.31
2024-03-02T20:32:40.658Z,11.29
2024-03-02T20:35:07.790Z,11.27
2024-03-02T20:37:34.396Z,11.25
2024-03-02T20:40:01.631Z,11.26
2024-03-02T20:42:28.508Z,11.24
2024-03-02T20:44:55.185Z,11.25
2024-03-02T20:47:23.777Z,11.18
2024-03-02T20:49:52.182Z,11.19
2024-03-02T20:52:19.389Z,11.16
2024-03-02T20:54:46.598Z,11.17
2024-03-02T20:57:13.283Z,11.16
2024-03-02T20:59:40.501Z,11.11
2024-03-02T21:02:07.684Z,11.07
2024-03-02T21:04:34.465Z,11.05
2024-03-02T21:07:01.284Z,11.02
2024-03-02T21:09:27.995Z,10.99
2024-03-02T21:11:54.767Z,10.99
2024-03-02T21:14:21.368Z,10.97
2024-03-02T21:16:50.736Z,10.98
2024-03-02T21:19:18.018Z,10.99
2024-03-02T21:21:45.221Z,10.99
2024-03-02T21:24:11.801Z,10.96
2024-03-02T21:26:42.406Z,10.90
2024-03-02T21:29:09.678Z,10.83
2024-03-02T21:31:36.409Z,10.79
2024-03-02T21:34:03.141Z,10.70
2024-03-02T21:36:29.808Z,10.65
2024-03-02T21:38:56.397Z,10.51
2024-03-02T21:41:23.747Z,10.31
2024-03-02T21:43:50.334Z,10.27
2024-03-02T21:46:17.480Z,10.21
2024-03-02T21:48:44.257Z,10.09
2024-03-02T21:51:20.226Z,10.02
2024-03-02T21:53:47.104Z,9.93
2024-03-02T21:56:14.146Z,9.93
2024-03-02T21:58:41.084Z,9.84
2024-03-02T22:01:08.198Z,9.86
2024-03-02T22:03:35.057Z,9.88
2024-03-02T22:06:01.665Z,9.90
2024-03-02T22:08:31.118Z,9.91
2024-03-02T22:10:57.735Z,9.90
2024-03-02T22:13:24.409Z,9.94
2024-03-02T22:15:51.086Z,9.93
2024-03-02T22:18:17.666Z,9.95
2024-03-02T22:20:44.253Z,9.88
2024-03-02T22:23:11.053Z,9.84
2024-03-02T22:25:37.774Z,9.77
2024-03-02T22:28:04.586Z,9.78
2024-03-02T22:30:31.221Z,9.70
2024-03-02T22:32:58.461Z,9.67
2024-03-02T22:35:27.897Z,9.70
2024-03-02T22:37:55.056Z,9.66
2024-03-02T22:40:23.925Z,9.66
2024-03-02T22:42:50.577Z,9.69
2024-03-02T22:45:17.161Z,9.71
2024-03-02T22:47:43.817Z,9.69
2024-03-02T22:50:11.273Z,9.66
2024-03-02T22:52:37.870Z,9.70
2024-03-02T22:55:04.904Z,9.72
2024-03-02T22:57:31.575Z,9.71
2024-03-02T22:59:58.214Z,9.71
2024-03-02T23:02:25.130Z,9.71
2024-03-02T23:04:52.602Z,9.67
2024-03-02T23:07:23.120Z,9.55
2024-03-02T23:09:50.193Z,9.44
2024-03-02T23:12:16.929Z,9.30
2024-03-02T23:14:43.528Z,9.25
2024-03-02T23:17:10.325Z,8.95
2024-03-02T23:19:37.257Z,8.92
2024-03-02T23:22:06.295Z,8.81
2024-03-02T23:24:33.990Z,8.69
2024-03-02T23:27:00.710Z,8.58
2024-03-02T23:29:27.468Z,8.60
2024-03-02T23:31:54.012Z,8.61
2024-03-02T23:34:20.616Z,8.48
2024-03-02T23:36:47.361Z,8.55
2024-03-02T23:39:33.920Z,8.52
2024-03-02T23:42:00.617Z,8.52
2024-03-02T23:44:27.134Z,8.57
2024-03-02T23:46:53.673Z,8.61
2024-03-02T23:49:20.269Z,8.59
2024-03-02T23:51:46.884Z,8.64
2024-03-02T23:54:13.481Z,8.71
2024-03-02T23:56:40.013Z,8.79
2024-03-02T23:59:07.085Z,8.84
